Time;durP1;ratioP1;P1;durP2;ratioP2;P2;SDS_P1;SDS_P2;PMS_P1;PMS_P2;Temp;Humidity;BMP_temperature;BMP_pressure;BME280_temperature;BME280_humidity;BME280_pressure;Samples;Min_cycle;Max_cycle;Signal;HPM_P1;HPM_P2
2022/11/03 15:58:16;;;;;;;3.00;1.58;;;16.00;70.00;;;;;;5089871;27;20503;-74
2022/11/03 16:00:42;;;;;;;5.90;1.80;;;13.90;77.90;;;;;;5072408;28;20253;-74
2022/11/03 16:03:07;;;;;;;3.30;1.50;;;13.10;80.80;;;;;;5071925;28;20126;-76
2022/11/03 16:05:33;;;;;;;4.55;1.50;;;12.60;83.80;;;;;;5067616;28;20025;-74
2022/11/03 16:07:59;;;;;;;3.10;1.45;;;12.20;86.00;;;;;;5070842;28;20088;-74
2022/11/03 16:10:25;;;;;;;2.70;1.48;;;11.80;87.90;;;;;;5073882;28;20025;-74
2022/11/03 16:12:50;;;;;;;4.55;1.60;;;11.50;89.70;;;;;;5074274;28;20051;-74
2022/11/03 16:15:16;;;;;;;3.38;1.40;;;11.20;90.40;;;;;;5071775;28;20057;-74
2022/11/03 16:17:41;;;;;;;5.82;1.60;;;10.90;90.80;;;;;;5074067;28;20048;-75
2022/11/03 16:20:08;;;;;;;3.78;1.70;;;10.70;91.20;;;;;;5068961;28;20027;-74
2022/11/03 16:22:34;;;;;;;2.40;1.20;;;10.40;91.50;;;;;;5072357;28;20032;-74
2022/11/03 16:25:00;;;;;;;2.30;1.52;;;10.30;92.00;;;;;;5063441;28;20082;-74
2022/11/03 16:27:26;;;;;;;3.00;1.73;;;10.10;92.10;;;;;;5069720;28;20059;-74
2022/11/03 16:29:54;;;;;;;4.88;2.20;;;10.00;92.60;;;;;;5073058;28;20047;-74
2022/11/03 16:32:23;;;;;;;4.80;2.30;;;9.80;92.80;;;;;;5080934;28;20058;-74
2022/11/03 16:34:49;;;;;;;4.15;2.20;;;9.70;93.20;;;;;;5062913;28;20074;-74
2022/11/03 16:37:15;;;;;;;7.63;6.55;;;9.60;93.50;;;;;;5070625;28;20102;-74
2022/11/03 16:39:41;;;;;;;5.45;4.57;;;9.50;93.70;;;;;;5066293;28;20028;-73
2022/11/03 16:42:07;;;;;;;6.30;4.30;;;9.40;94.00;;;;;;5063117;28;20031;-74
2022/11/03 16:44:33;;;;;;;4.50;1.98;;;9.40;94.10;;;;;;5067740;28;20373;-73
2022/11/03 16:47:00;;;;;;;4.38;1.90;;;9.30;94.00;;;;;;5061997;28;20571;-73
2022/11/03 16:49:25;;;;;;;13.00;7.18;;;9.30;94.20;;;;;;5069381;28;20036;-74
2022/11/03 16:51:51;;;;;;;71.35;41.38;;;9.20;94.40;;;;;;5070019;28;20058;-73
2022/11/03 16:54:17;;;;;;;20.58;12.88;;;9.20;94.70;;;;;;5067358;28;20024;-73
2022/11/03 16:56:43;;;;;;;6.78;3.63;;;9.20;94.90;;;;;;5064689;28;20556;-73
2022/11/03 16:59:09;;;;;;;4.97;1.90;;;9.20;94.90;;;;;;5063205;28;20032;-73
2022/11/03 17:01:34;;;;;;;2.08;1.48;;;9.20;94.70;;;;;;5081527;28;20028;-74
2022/11/03 17:04:01;;;;;;;1.90;1.05;;;9.20;94.80;;;;;;5069008;28;20428;-74
2022/11/03 17:06:26;;;;;;;1.58;0.90;;;9.20;94.90;;;;;;5070800;28;20028;-74
2022/11/03 17:08:52;;;;;;;2.00;0.80;;;9.20;95.00;;;;;;5059392;28;20031;-74
2022/11/03 17:11:34;;;;;;;3.38;0.93;;;9.10;95.10;;;;;;5052605;28;20032;-73
2022/11/03 17:14:04;;;;;;;1.70;0.90;;;9.10;95.00;;;;;;5055763;28;20139;-74
2022/11/03 17:16:29;;;;;;;3.03;1.30;;;9.00;95.00;;;;;;5054994;28;20028;-74
2022/11/03 17:18:57;;;;;;;1.92;0.73;;;9.00;94.70;;;;;;5078956;28;20035;-74
2022/11/03 17:21:24;;;;;;;4.93;1.60;;;8.90;94.70;;;;;;5084389;28;20140;-74
2022/11/03 17:23:50;;;;;;;4.93;2.50;;;8.90;94.90;;;;;;5077302;28;20036;-73
2022/11/03 17:26:23;;;;;;;11.90;6.20;;;8.80;94.80;;;;;;5079356;28;20104;-74
2022/11/03 17:28:48;;;;;;;4.85;1.45;;;8.80;94.80;;;;;;5080695;28;20032;-74
2022/11/03 17:31:15;;;;;;;2.38;1.35;;;8.70;95.00;;;;;;5076321;28;20468;-73
2022/11/03 17:33:40;;;;;;;4.47;1.30;;;8.70;95.00;;;;;;5070874;28;20031;-74
2022/11/03 17:36:07;;;;;;;2.92;1.20;;;8.60;95.00;;;;;;5051241;28;20753;-74
2022/11/03 17:38:32;;;;;;;1.88;1.05;;;8.50;95.20;;;;;;5078486;28;20031;-74
2022/11/03 17:40:58;;;;;;;25.80;2.28;;;8.50;95.30;;;;;;5074086;28;20043;-74
2022/11/03 17:43:26;;;;;;;3.60;1.77;;;8.50;95.20;;;;;;5066785;28;20042;-74
2022/11/03 17:45:52;;;;;;;2.75;1.58;;;8.40;95.50;;;;;;5088113;28;20453;-74
2022/11/03 17:48:18;;;;;;;3.95;2.03;;;8.50;95.70;;;;;;5062496;28;20285;-73
2022/11/03 17:50:46;;;;;;;2.85;1.88;;;8.50;95.90;;;;;;5096646;28;20046;-74
2022/11/03 17:53:20;;;;;;;3.15;2.00;;;8.60;96.20;;;;;;5068349;28;20509;-73
2022/11/03 17:55:47;;;;;;;2.83;1.65;;;8.70;96.30;;;;;;5092619;28;20297;-73
2022/11/03 17:58:13;;;;;;;3.08;1.60;;;8.70;96.20;;;;;;5072693;28;20059;-74
2022/11/03 18:00:38;;;;;;;6.40;1.73;;;8.70;96.00;;;;;;5072998;28;20482;-75
2022/11/03 18:03:10;;;;;;;3.92;1.40;;;8.70;95.90;;;;;;5080753;28;20044;-74
2022/11/03 18:05:35;;;;;;;;;;;8.70;95.80;;;;;;5077547;28;20606;-73
2022/11/03 18:08:04;;;;;;;2.53;1.55;;;8.70;95.70;;;;;;5088590;28;20016;-73
2022/11/03 18:10:36;;;;;;;6.43;1.65;;;8.70;95.80;;;;;;5074870;28;20038;-75
2022/11/03 18:13:15;;;;;;;5.30;1.70;;;8.70;96.00;;;;;;5074021;28;20035;-75
2022/11/03 18:15:46;;;;;;;5.97;1.60;;;8.70;96.20;;;;;;5085349;28;20105;-74
2022/11/03 18:18:23;;;;;;;4.97;1.70;;;8.70;96.30;;;;;;5070100;28;20066;-74
2022/11/03 18:20:51;;;;;;;2.80;1.85;;;8.60;96.40;;;;;;5079629;28;20032;-73
2022/11/03 18:23:25;;;;;;;1.95;1.33;;;8.60;96.60;;;;;;5066938;28;20161;-74
2022/11/03 18:25:52;;;;;;;5.95;2.20;;;8.60;96.80;;;;;;5036929;28;20880;-74
2022/11/03 18:28:18;;;;;;;5.53;1.63;;;8.60;96.90;;;;;;5057947;28;20115;-74
2022/11/03 18:30:47;;;;;;;6.85;2.28;;;8.60;97.00;;;;;;5055636;28;20036;-74
2022/11/03 18:33:32;;;;;;;6.15;1.77;;;8.60;97.00;;;;;;5053227;28;20079;-73
2022/11/03 18:36:00;;;;;;;2.92;1.52;;;8.60;96.90;;;;;;5077722;28;20031;-73
2022/11/03 18:38:27;;;;;;;1.20;1.10;;;8.60;96.70;;;;;;5056935;28;20040;-74
2022/11/03 18:40:53;;;;;;;2.30;1.60;;;8.60;96.40;;;;;;5073237;28;20020;-73
2022/11/03 18:43:22;;;;;;;5.55;1.60;;;8.50;96.20;;;;;;5085057;28;21063;-73
2022/11/03 18:45:49;;;;;;;10.45;1.65;;;8.40;96.10;;;;;;5060814;28;20398;-73
2022/11/03 18:48:18;;;;;;;2.85;1.60;;;8.40;96.20;;;;;;5074666;28;20027;-74
2022/11/03 18:50:55;;;;;;;4.43;2.60;;;8.30;95.90;;;;;;5068583;28;21299;-73
2022/11/03 18:53:24;;;;;;;3.10;2.25;;;8.30;96.00;;;;;;5062928;28;20082;-75
2022/11/03 18:55:50;;;;;;;3.90;2.65;;;8.20;95.60;;;;;;5054461;28;20028;-72
2022/11/03 18:58:22;;;;;;;7.78;5.10;;;8.10;95.60;;;;;;5073225;28;20034;-74
2022/11/03 19:00:47;;;;;;;7.72;5.03;;;8.10;95.80;;;;;;5070965;28;20020;-74
2022/11/03 19:03:18;;;;;;;25.95;14.38;;;8.10;95.90;;;;;;5074991;28;20035;-73
2022/11/03 19:05:46;;;;;;;19.95;12.85;;;8.10;96.00;;;;;;5073207;28;20089;-75
2022/11/03 19:08:21;;;;;;;15.02;7.93;;;8.00;96.10;;;;;;5056132;28;20032;-74
2022/11/03 19:10:47;;;;;;;10.25;4.90;;;8.00;96.30;;;;;;5073986;28;20445;-75
2022/11/03 19:13:17;;;;;;;5.93;3.80;;;8.10;96.40;;;;;;5075362;28;20043;-73
2022/11/03 19:15:43;;;;;;;13.18;5.43;;;8.00;96.30;;;;;;5070007;28;20215;-74
2022/11/03 19:18:11;;;;;;;9.02;4.88;;;8.00;96.20;;;;;;5079275;28;20232;-74
2022/11/03 19:20:38;;;;;;;11.27;5.15;;;8.00;96.10;;;;;;5083955;28;20031;-74
2022/11/03 19:23:03;;;;;;;9.90;4.85;;;8.00;96.20;;;;;;5081394;28;20035;-75
2022/11/03 19:25:29;;;;;;;8.40;4.28;;;8.00;96.70;;;;;;5047675;28;20220;-74
2022/11/03 19:27:55;;;;;;;22.08;9.98;;;8.10;96.90;;;;;;5073320;28;20418;-74
2022/11/03 19:30:21;;;;;;;10.38;4.47;;;8.20;97.10;;;;;;5072881;28;20024;-74
2022/11/03 19:32:50;;;;;;;4.78;3.20;;;8.20;97.20;;;;;;5071665;28;20029;-74
2022/11/03 19:35:21;;;;;;;4.18;2.40;;;8.30;97.20;;;;;;5073491;28;20032;-73
2022/11/03 19:37:48;;;;;;;;;;;8.30;97.00;;;;;;5055807;28;20039;-74
2022/11/03 19:40:15;;;;;;;3.65;2.97;;;8.20;96.80;;;;;;5071037;28;19923;-74
2022/11/03 19:42:41;;;;;;;6.22;2.92;;;8.30;96.80;;;;;;5055382;28;20020;-74
2022/11/03 19:45:13;;;;;;;4.30;2.65;;;8.30;96.70;;;;;;5072930;28;20506;-74
2022/11/03 19:47:42;;;;;;;4.38;2.95;;;8.30;96.70;;;;;;5071191;28;20314;-74
2022/11/03 19:50:24;;;;;;;9.35;2.58;;;8.30;96.60;;;;;;5073660;28;20199;-74
2022/11/03 19:52:52;;;;;;;8.90;3.28;;;8.40;96.60;;;;;;5070709;28;20352;-74
2022/11/03 19:55:18;;;;;;;6.72;3.50;;;8.40;96.80;;;;;;5071613;28;20075;-74
2022/11/03 19:57:44;;;;;;;6.63;3.00;;;8.50;96.90;;;;;;5074924;28;20048;-74
2022/11/03 20:00:16;;;;;;;7.45;3.05;;;8.60;96.90;;;;;;5070645;28;20021;-74
2022/11/03 20:02:44;;;;;;;6.55;3.38;;;8.60;97.00;;;;;;5069884;28;20043;-74
2022/11/03 20:05:14;;;;;;;8.63;3.58;;;8.60;96.90;;;;;;5072247;28;20028;-74
2022/11/03 20:07:41;;;;;;;5.07;3.30;;;8.70;97.00;;;;;;5072875;28;20028;-74
2022/11/03 20:10:16;;;;;;;5.22;3.47;;;8.70;97.00;;;;;;5072000;28;20031;-74
2022/11/03 20:12:43;;;;;;;5.75;3.30;;;8.80;96.80;;;;;;5073421;28;20032;-74
2022/11/03 20:15:17;;;;;;;5.97;3.40;;;8.80;96.90;;;;;;5068987;28;20031;-74
2022/11/03 20:17:44;;;;;;;8.18;5.40;;;8.80;96.60;;;;;;5070710;28;20039;-74
2022/11/03 20:20:15;;;;;;;9.18;6.75;;;8.80;96.30;;;;;;5070676;28;20034;-73
2022/11/03 20:22:48;;;;;;;5.53;4.10;;;8.90;96.20;;;;;;5072324;28;20414;-74
2022/11/03 20:25:26;;;;;;;12.73;6.05;;;8.90;96.10;;;;;;5074610;28;20422;-73
2022/11/03 20:27:54;;;;;;;66.93;46.50;;;8.90;96.20;;;;;;5067541;28;20156;-73
2022/11/03 20:30:21;;;;;;;43.75;33.75;;;8.80;96.30;;;;;;5071134;28;20024;-74
2022/11/03 20:32:47;;;;;;;8.30;5.15;;;8.80;96.50;;;;;;5073588;28;20028;-74
2022/11/03 20:35:22;;;;;;;11.75;4.72;;;8.90;96.20;;;;;;5053350;28;20024;-74
2022/11/03 20:37:49;;;;;;;8.55;4.45;;;8.80;96.10;;;;;;5084353;28;20449;-74
2022/11/03 20:40:19;;;;;;;8.32;4.15;;;8.90;96.20;;;;;;5052893;28;20250;-74
2022/11/03 20:42:47;;;;;;;6.60;3.95;;;8.90;96.30;;;;;;5067835;28;20060;-74
2022/11/03 20:45:16;;;;;;;8.23;3.83;;;8.90;96.50;;;;;;5057472;28;20498;-74
2022/11/03 20:47:43;;;;;;;8.35;3.63;;;9.00;96.50;;;;;;5077101;28;20031;-73
2022/11/03 20:50:09;;;;;;;9.70;3.67;;;9.00;96.60;;;;;;5077839;28;20529;-74
2022/11/03 20:52:38;;;;;;;8.57;3.72;;;9.00;96.50;;;;;;5076160;28;20525;-74
2022/11/03 20:55:15;;;;;;;7.68;3.25;;;9.10;96.50;;;;;;5077729;28;20038;-74
2022/11/03 20:57:41;;;;;;;5.90;3.40;;;9.10;96.30;;;;;;5076271;28;20487;-74
2022/11/03 21:00:10;;;;;;;7.38;2.80;;;9.00;96.30;;;;;;5058554;28;20453;-74
2022/11/03 21:02:35;;;;;;;5.47;2.50;;;9.00;96.00;;;;;;5074374;28;20023;-74
2022/11/03 21:05:01;;;;;;;7.40;3.03;;;9.00;95.80;;;;;;5078924;28;20028;-74
2022/11/03 21:07:26;;;;;;;9.23;2.95;;;8.80;95.70;;;;;;5059267;28;20047;-75
2022/11/03 21:09:52;;;;;;;6.75;3.10;;;8.70;95.80;;;;;;5076929;28;20686;-74
2022/11/03 21:12:17;;;;;;;7.90;3.15;;;8.60;96.00;;;;;;5075721;28;20028;-75
2022/11/03 21:19:57;;;;;;;8.68;3.10;;;8.50;96.20;;;;;;5076252;28;20030;-75
2022/11/03 21:20:13;;;;;;;8.57;3.88;;;8.30;96.90;;;;;;5079070;28;20045;-74
2022/11/03 21:22:41;;;;;;;5.47;3.63;;;8.30;97.10;;;;;;5058533;28;20028;-75
2022/11/03 21:25:13;;;;;;;9.73;4.40;;;8.30;97.30;;;;;;5057538;28;20039;-74
2022/11/03 21:27:39;;;;;;;5.80;2.58;;;8.30;97.30;;;;;;5075813;28;20428;-74
2022/11/03 21:30:05;;;;;;;8.10;3.17;;;8.50;97.50;;;;;;5074565;28;20027;-74
2022/11/03 21:32:31;;;;;;;5.05;2.70;;;8.60;97.40;;;;;;5077449;28;20274;-74
2022/11/03 21:34:57;;;;;;;6.88;2.80;;;8.70;97.20;;;;;;5075919;28;20353;-74
2022/11/03 21:37:23;;;;;;;7.82;3.35;;;8.80;97.10;;;;;;5057568;28;20036;-74
2022/11/03 21:39:48;;;;;;;4.78;2.50;;;8.80;96.80;;;;;;5056914;28;20047;-75
2022/11/03 21:44:59;;;;;;;9.52;2.92;;;8.90;96.80;;;;;;5068262;28;20500;-75
2022/11/03 21:47:25;;;;;;;5.93;2.53;;;8.90;96.80;;;;;;5071530;28;20028;-75
2022/11/03 21:49:51;;;;;;;7.97;2.63;;;9.00;96.50;;;;;;5076307;28;20115;-74
2022/11/03 21:52:30;;;;;;;4.38;2.42;;;9.00;96.30;;;;;;5075966;28;20853;-74
2022/11/03 21:54:58;;;;;;;5.10;2.60;;;9.10;96.20;;;;;;5074557;28;20024;-74
2022/11/03 21:57:24;;;;;;;6.20;2.60;;;9.10;96.10;;;;;;5071884;28;20188;-74
2022/11/03 21:59:49;;;;;;;8.85;2.47;;;9.10;96.10;;;;;;5074888;28;20028;-74
2022/11/03 22:02:15;;;;;;;4.97;2.50;;;9.20;96.00;;;;;;5086944;28;20134;-74
2022/11/03 22:04:41;;;;;;;4.53;2.47;;;9.20;95.90;;;;;;5088857;28;20141;-74
2022/11/03 22:07:07;;;;;;;5.13;2.30;;;9.20;95.90;;;;;;5059475;28;20065;-74
2022/11/03 22:09:33;;;;;;;5.15;2.55;;;9.20;96.00;;;;;;5083759;28;20028;-75
2022/11/03 22:11:59;;;;;;;5.32;2.42;;;9.10;96.00;;;;;;5081844;28;20050;-74
2022/11/03 22:14:27;;;;;;;8.95;2.83;;;9.10;96.10;;;;;;5084591;28;20024;-74
2022/11/03 22:16:53;;;;;;;6.30;2.78;;;9.00;96.30;;;;;;5095252;28;20526;-74
2022/11/03 22:27:38;;;;;;;3.55;1.88;;;8.90;96.90;;;;;;5077840;28;20147;-73
2022/11/03 22:32:54;;;;;;;3.67;1.98;;;8.90;96.80;;;;;;5097954;28;20812;-74
2022/11/03 22:38:15;;;;;;;4.40;2.33;;;9.10;97.00;;;;;;5082066;28;20307;-74
2022/11/03 22:46:12;;;;;;;4.55;1.67;;;9.10;97.30;;;;;;5098063;28;20169;-74
2022/11/03 22:48:38;;;;;;;7.57;1.95;;;9.10;97.30;;;;;;5099104;28;20059;-75
2022/11/03 22:51:07;;;;;;;8.05;1.88;;;9.00;97.10;;;;;;5068193;28;20124;-75
2022/11/03 22:56:19;;;;;;;3.65;1.80;;;8.90;97.40;;;;;;5096114;28;20472;-75
2022/11/03 22:58:46;;;;;;;5.10;1.98;;;8.90;97.50;;;;;;5098541;28;20104;-75
2022/11/03 23:01:17;;;;;;;6.72;2.10;;;8.90;97.60;;;;;;5087987;28;20023;-75
2022/11/03 23:03:44;;;;;;;6.18;1.88;;;9.00;97.70;;;;;;5086679;28;20035;-74
2022/11/03 23:06:16;;;;;;;7.97;2.00;;;9.00;97.70;;;;;;5079668;28;20070;-75
2022/11/03 23:08:43;;;;;;;7.80;2.10;;;9.00;97.70;;;;;;5060991;28;20085;-74
2022/11/03 23:11:17;;;;;;;7.90;2.42;;;9.00;97.70;;;;;;5096607;28;20035;-74
2022/11/03 23:14:07;;;;;;;7.95;2.10;;;9.10;97.70;;;;;;5095944;28;20034;-75
2022/11/03 23:16:43;;;;;;;5.18;2.00;;;9.10;97.70;;;;;;5063897;28;20043;-74
2022/11/03 23:21:55;;;;;;;6.78;2.25;;;9.20;97.70;;;;;;5062412;28;20526;-75
2022/11/03 23:27:05;;;;;;;4.93;2.28;;;9.20;97.60;;;;;;5078726;28;20062;-75
2022/11/03 23:29:31;;;;;;;5.40;2.28;;;9.20;97.60;;;;;;5076410;28;20246;-75
2022/11/03 23:31:58;;;;;;;7.47;2.42;;;9.20;97.60;;;;;;5089091;28;20110;-75
2022/11/03 23:34:24;;;;;;;9.43;2.20;;;9.10;97.20;;;;;;5081908;28;20028;-76
2022/11/03 23:36:50;;;;;;;8.70;2.70;;;9.10;97.20;;;;;;5057566;28;20034;-75
2022/11/03 23:39:17;;;;;;;7.43;2.40;;;9.00;97.30;;;;;;5071125;28;20035;-75
2022/11/03 23:41:43;;;;;;;6.43;2.70;;;8.90;97.40;;;;;;5072112;28;20126;-75
2022/11/03 23:44:14;;;;;;;7.35;2.28;;;9.00;97.60;;;;;;5064403;28;20107;-75
2022/11/03 23:49:24;;;;;;;4.10;1.85;;;8.90;99.90;;;;;;5086146;28;20465;-75
2022/11/03 23:51:49;;;;;;;6.10;2.22;;;9.00;99.90;;;;;;5077836;28;20028;-74
2022/11/03 23:54:15;;;;;;;4.75;1.95;;;9.00;99.90;;;;;;5090183;28;20129;-74
2022/11/03 23:59:29;;;;;;;11.00;2.63;;;9.00;99.90;;;;;;5079532;28;20047;-74
